createdAt,value
2022-12-08T00:00:37.928Z,6.90
2022-12-08T00:01:33.232Z,6.00
2022-12-08T00:02:28.305Z,6.90
2022-12-08T00:03:23.411Z,6.90
2022-12-08T00:04:18.302Z,6.20
2022-12-08T00:05:13.338Z,7.00
2022-12-08T00:06:08.374Z,6.50
2022-12-08T00:07:03.386Z,6.40
2022-12-08T00:07:58.525Z,6.80
2022-12-08T00:08:53.736Z,6.00
2022-12-08T00:09:48.625Z,6.50
2022-12-08T00:10:50.815Z,6.40
2022-12-08T00:11:39.744Z,6.30
2022-12-08T00:12:33.870Z,5.80
2022-12-08T00:13:28.884Z,6.00
2022-12-08T00:14:24.202Z,6.00
2022-12-08T00:15:19.196Z,5.90
2022-12-08T00:16:14.493Z,5.60
2022-12-08T00:17:09.658Z,5.40
2022-12-08T00:18:08.451Z,5.80
2022-12-08T00:19:03.553Z,5.30
2022-12-08T00:19:58.649Z,5.70
2022-12-08T00:20:53.818Z,6.20
2022-12-08T00:21:49.119Z,6.10
2022-12-08T00:22:44.384Z,5.00
2022-12-08T00:23:39.580Z,5.90
2022-12-08T00:24:34.711Z,5.60
2022-12-08T00:25:29.920Z,6.90
2022-12-08T00:26:25.732Z,6.00
2022-12-08T00:27:21.032Z,5.80
2022-12-08T00:28:16.769Z,5.30
2022-12-08T00:29:17.205Z,5.30
2022-12-08T00:30:08.397Z,5.50
2022-12-08T00:31:03.055Z,5.40
2022-12-08T00:31:58.182Z,5.80
2022-12-08T00:32:53.375Z,5.80
2022-12-08T00:33:49.772Z,5.50
2022-12-08T00:34:44.927Z,5.20
2022-12-08T00:35:43.243Z,5.40
2022-12-08T00:36:36.042Z,5.70
2022-12-08T00:37:31.081Z,5.90
2022-12-08T00:38:26.893Z,4.90
2022-12-08T00:39:22.067Z,5.50
2022-12-08T00:40:17.799Z,6.30
2022-12-08T00:41:12.923Z,6.20
2022-12-08T00:42:08.232Z,5.10
2022-12-08T00:43:03.935Z,5.30
2022-12-08T00:43:59.155Z,5.90
2022-12-08T00:44:54.290Z,5.60
2022-12-08T00:45:50.693Z,5.20
2022-12-08T00:46:45.838Z,5.60
2022-12-08T00:47:41.719Z,5.80
2022-12-08T00:48:36.846Z,5.40
2022-12-08T00:49:32.029Z,6.00
2022-12-08T00:50:27.755Z,6.00
2022-12-08T00:51:22.943Z,6.00
2022-12-08T00:52:18.780Z,5.10
2022-12-08T00:53:13.964Z,5.50
2022-12-08T00:54:09.276Z,5.80
2022-12-08T00:55:05.044Z,5.40
2022-12-08T00:56:00.953Z,6.70
2022-12-08T00:56:55.574Z,9.30
2022-12-08T00:57:50.663Z,9.60
2022-12-08T00:58:45.713Z,12.20
2022-12-08T00:59:40.793Z,10.20
2022-12-08T01:00:35.834Z,8.10
2022-12-08T01:01:30.890Z,6.50
2022-12-08T01:02:25.961Z,7.00
2022-12-08T01:03:21.072Z,6.40
2022-12-08T01:04:21.567Z,5.90
2022-12-08T01:05:16.584Z,7.00
2022-12-08T01:06:11.897Z,6.30
2022-12-08T01:07:07.663Z,7.90
2022-12-08T01:08:03.020Z,8.50
2022-12-08T01:08:58.160Z,9.10
2022-12-08T01:09:54.577Z,8.40
2022-12-08T01:10:49.766Z,7.00
2022-12-08T01:11:45.545Z,7.80
2022-12-08T01:12:40.655Z,7.60
2022-12-08T01:13:36.107Z,7.60
2022-12-08T01:14:31.697Z,8.40
2022-12-08T01:15:27.027Z,7.30
2022-12-08T01:16:22.822Z,7.70
2022-12-08T01:17:17.993Z,7.50
2022-12-08T01:18:13.284Z,8.80
2022-12-08T01:19:09.325Z,7.90
2022-12-08T01:20:04.398Z,8.70
2022-12-08T01:20:59.454Z,8.50
2022-12-08T01:21:56.121Z,8.00
2022-12-08T01:22:51.347Z,8.50
2022-12-08T01:23:47.053Z,7.30
2022-12-08T01:24:42.341Z,8.60
2022-12-08T01:25:37.510Z,9.60
2022-12-08T01:26:32.818Z,9.80
2022-12-08T01:27:28.078Z,8.00
2022-12-08T01:28:24.631Z,8.10
2022-12-08T01:29:19.782Z,5.60
2022-12-08T01:30:15.701Z,7.10
2022-12-08T01:31:10.844Z,6.10
2022-12-08T01:32:06.355Z,5.30
2022-12-08T01:33:01.956Z,5.70
2022-12-08T01:33:57.137Z,5.40
2022-12-08T01:34:52.994Z,6.60
2022-12-08T01:35:48.154Z,6.30
2022-12-08T01:36:43.484Z,5.70
2022-12-08T01:37:39.110Z,5.90
2022-12-08T01:38:34.268Z,5.70
2022-12-08T01:39:29.421Z,5.50
2022-12-08T01:40:25.755Z,6.30
2022-12-08T01:41:21.103Z,5.60
2022-12-08T01:42:16.802Z,6.80
2022-12-08T01:43:12.089Z,6.90
2022-12-08T01:44:07.247Z,7.20
2022-12-08T01:45:02.412Z,7.10
2022-12-08T01:45:57.734Z,5.90
2022-12-08T01:46:52.959Z,6.20
2022-12-08T01:47:48.142Z,6.60
2022-12-08T01:48:43.347Z,6.80
2022-12-08T01:49:39.038Z,6.00
2022-12-08T01:50:34.339Z,5.90
2022-12-08T01:51:29.538Z,6.40
2022-12-08T01:52:24.837Z,6.10
2022-12-08T01:53:19.876Z,6.40
2022-12-08T01:54:14.907Z,5.60
2022-12-08T01:55:09.895Z,5.90
2022-12-08T01:56:04.950Z,6.10
2022-12-08T01:56:59.985Z,5.90
2022-12-08T01:57:55.015Z,5.80
2022-12-08T01:58:50.078Z,6.00
2022-12-08T01:59:45.242Z,5.20
2022-12-08T02:00:40.345Z,5.70
2022-12-08T02:01:35.470Z,5.90
2022-12-08T02:02:30.528Z,6.70
2022-12-08T02:03:25.492Z,5.80
2022-12-08T02:04:20.540Z,5.50
2022-12-08T02:05:15.605Z,6.20
2022-12-08T02:06:10.618Z,6.00
2022-12-08T02:07:08.138Z,5.40
2022-12-08T02:08:00.750Z,6.10
2022-12-08T02:08:55.870Z,5.30
2022-12-08T02:09:50.866Z,6.00
2022-12-08T02:10:45.913Z,5.80
2022-12-08T02:11:40.937Z,5.90
2022-12-08T02:12:36.086Z,5.90
2022-12-08T02:13:31.127Z,7.50
2022-12-08T02:14:26.257Z,6.60
2022-12-08T02:15:21.499Z,6.60
2022-12-08T02:16:17.277Z,6.00
2022-12-08T02:17:12.482Z,7.00
2022-12-08T02:18:07.627Z,6.50
2022-12-08T02:19:29.800Z,6.00
2022-12-08T02:20:00.376Z,6.10
2022-12-08T02:20:55.243Z,6.10
2022-12-08T02:21:50.356Z,6.10
2022-12-08T02:22:45.579Z,6.30
2022-12-08T02:23:41.256Z,6.00
2022-12-08T02:24:36.451Z,6.10
2022-12-08T02:25:32.170Z,6.40
2022-12-08T02:26:27.323Z,5.60
2022-12-08T02:27:22.648Z,5.40
2022-12-08T02:28:18.511Z,5.80
2022-12-08T02:29:13.693Z,5.30
2022-12-08T02:30:09.000Z,5.90
2022-12-08T02:31:05.337Z,6.10
2022-12-08T02:32:00.541Z,6.10
2022-12-08T02:32:56.255Z,6.30
2022-12-08T02:33:51.424Z,7.00
2022-12-08T02:34:46.576Z,6.20
2022-12-08T02:35:42.490Z,7.00
2022-12-08T02:36:37.664Z,6.80
2022-12-08T02:37:33.677Z,6.40
2022-12-08T02:38:28.703Z,6.50
2022-12-08T02:39:24.149Z,6.20
2022-12-08T02:40:19.917Z,5.40
2022-12-08T02:41:15.096Z,6.40
2022-12-08T02:42:10.362Z,6.00
2022-12-08T02:43:06.793Z,5.60
2022-12-08T02:44:01.952Z,5.40
2022-12-08T02:44:57.806Z,5.70
2022-12-08T02:45:52.996Z,5.70
2022-12-08T02:46:48.386Z,5.40
2022-12-08T02:47:43.972Z,5.30
2022-12-08T02:48:39.301Z,5.40
2022-12-08T02:49:35.041Z,5.00
2022-12-08T02:50:30.166Z,5.40
2022-12-08T02:51:25.459Z,4.90
2022-12-08T02:52:21.219Z,5.20
2022-12-08T02:53:16.353Z,5.00
2022-12-08T02:54:11.488Z,4.40
2022-12-08T02:55:07.839Z,5.20
2022-12-08T02:56:02.999Z,4.80
2022-12-08T02:56:58.782Z,5.00
2022-12-08T02:57:54.066Z,5.50
2022-12-08T02:58:49.250Z,5.10
2022-12-08T02:59:45.067Z,5.10
2022-12-08T03:00:40.168Z,4.70
2022-12-08T03:01:35.482Z,5.00
2022-12-08T03:02:31.962Z,5.00
2022-12-08T03:03:27.074Z,4.80
2022-12-08T03:04:22.204Z,4.80
2022-12-08T03:05:18.623Z,5.00
2022-12-08T03:06:13.733Z,4.80
2022-12-08T03:07:09.570Z,4.80
2022-12-08T03:08:04.771Z,4.50
2022-12-08T03:08:59.904Z,4.90
2022-12-08T03:09:55.751Z,5.10
2022-12-08T03:10:51.062Z,5.30
2022-12-08T03:11:46.889Z,5.50
2022-12-08T03:12:42.009Z,5.00
2022-12-08T03:13:37.371Z,5.00
2022-12-08T03:14:33.255Z,5.30
2022-12-08T03:15:28.421Z,4.90
2022-12-08T03:16:23.864Z,5.40
2022-12-08T03:17:18.804Z,5.80
2022-12-08T03:18:14.087Z,5.40
2022-12-08T03:19:09.128Z,5.90
2022-12-08T03:20:04.503Z,6.10
2022-12-08T03:20:59.190Z,6.20
2022-12-08T03:21:54.267Z,5.50
2022-12-08T03:22:49.407Z,5.90
2022-12-08T03:23:44.455Z,5.90
2022-12-08T03:24:39.499Z,5.90
2022-12-08T03:25:34.638Z,5.20
2022-12-08T03:26:29.670Z,5.80
2022-12-08T03:27:24.693Z,5.70
2022-12-08T03:28:19.749Z,5.50
2022-12-08T03:29:14.770Z,6.00
2022-12-08T03:30:09.827Z,5.70
2022-12-08T03:31:04.947Z,5.90
2022-12-08T03:31:59.941Z,6.00
2022-12-08T03:32:54.986Z,5.60
2022-12-08T03:33:50.010Z,5.80
2022-12-08T03:34:45.041Z,6.60
2022-12-08T03:35:40.157Z,6.40
2022-12-08T03:36:35.179Z,5.60
2022-12-08T03:37:30.219Z,5.90
2022-12-08T03:38:25.351Z,5.40
2022-12-08T03:39:22.208Z,5.10
2022-12-08T03:40:17.354Z,5.30
2022-12-08T03:41:12.530Z,5.60
2022-12-08T03:42:07.810Z,6.20
2022-12-08T03:43:02.828Z,5.30
2022-12-08T03:43:58.132Z,5.90
2022-12-08T03:44:53.286Z,5.80
2022-12-08T03:45:48.555Z,5.40
2022-12-08T03:46:43.707Z,5.50
2022-12-08T03:47:38.903Z,5.50
2022-12-08T03:48:34.034Z,5.40
2022-12-08T03:49:29.477Z,5.30
2022-12-08T03:50:24.444Z,5.60
2022-12-08T03:51:19.628Z,5.20
2022-12-08T03:52:14.797Z,5.50
2022-12-08T03:53:09.949Z,5.70
2022-12-08T03:54:05.238Z,5.90
2022-12-08T03:55:00.410Z,5.80
2022-12-08T03:55:55.544Z,5.40
2022-12-08T03:56:50.720Z,6.10
2022-12-08T03:57:45.997Z,5.30
2022-12-08T03:58:41.279Z,5.50
2022-12-08T03:59:36.419Z,6.00
2022-12-08T04:00:31.701Z,6.00
2022-12-08T04:01:26.919Z,6.30
2022-12-08T04:02:22.140Z,5.70
2022-12-08T04:03:17.232Z,5.60
2022-12-08T04:04:12.457Z,5.60
2022-12-08T04:05:07.461Z,6.00
2022-12-08T04:06:02.595Z,6.30
2022-12-08T04:06:57.613Z,5.70
2022-12-08T04:07:52.723Z,5.90
2022-12-08T04:08:47.656Z,5.70
2022-12-08T04:09:42.726Z,6.20
2022-12-08T04:10:37.813Z,5.80
2022-12-08T04:11:32.893Z,5.90
2022-12-08T04:12:27.956Z,6.50
2022-12-08T04:13:23.193Z,6.60
2022-12-08T04:14:18.275Z,5.50
2022-12-08T04:15:13.333Z,6.60
2022-12-08T04:16:08.558Z,5.70
2022-12-08T04:17:03.490Z,5.80
2022-12-08T04:17:58.559Z,6.10
2022-12-08T04:18:53.649Z,5.60
2022-12-08T04:19:48.708Z,6.10
2022-12-08T04:20:43.791Z,6.40
2022-12-08T04:21:38.846Z,6.70
2022-12-08T04:22:33.907Z,5.80
2022-12-08T04:23:28.961Z,6.20
2022-12-08T04:24:24.156Z,7.00
2022-12-08T04:25:19.381Z,6.40
2022-12-08T04:26:14.771Z,6.30
2022-12-08T04:27:09.962Z,6.30
2022-12-08T04:28:05.201Z,5.80
2022-12-08T04:29:00.423Z,6.00
2022-12-08T04:29:55.644Z,5.90
2022-12-08T04:30:50.886Z,6.80
2022-12-08T04:31:46.156Z,6.60
2022-12-08T04:32:47.114Z,6.20
2022-12-08T04:33:37.598Z,5.60
2022-12-08T04:34:31.791Z,5.50
2022-12-08T04:35:26.981Z,5.70
2022-12-08T04:36:22.165Z,6.00
2022-12-08T04:37:17.334Z,5.80
2022-12-08T04:38:12.357Z,5.50
2022-12-08T04:39:07.510Z,5.70
2022-12-08T04:40:02.814Z,6.30
2022-12-08T04:40:57.679Z,5.60
2022-12-08T04:41:52.727Z,5.70
2022-12-08T04:42:47.807Z,5.40
2022-12-08T04:43:42.798Z,5.50
2022-12-08T04:44:37.967Z,4.70
2022-12-08T04:45:32.926Z,5.30
2022-12-08T04:46:28.018Z,5.30
2022-12-08T04:47:22.918Z,5.00
2022-12-08T04:48:18.033Z,5.00
2022-12-08T04:49:13.003Z,5.30
2022-12-08T04:50:08.024Z,4.70
2022-12-08T04:51:03.113Z,4.80
2022-12-08T04:51:58.120Z,4.90
2022-12-08T04:52:53.169Z,4.90
2022-12-08T04:53:48.203Z,5.00
2022-12-08T04:54:43.265Z,4.80
2022-12-08T04:55:38.361Z,5.10
2022-12-08T04:56:33.565Z,5.30
2022-12-08T04:57:28.794Z,5.20
2022-12-08T04:58:24.018Z,5.50
2022-12-08T04:59:19.098Z,6.80
2022-12-08T05:00:14.178Z,6.00
2022-12-08T05:01:09.319Z,5.60
2022-12-08T05:02:04.523Z,5.70
2022-12-08T05:02:59.599Z,6.00
2022-12-08T05:03:54.526Z,6.70
2022-12-08T05:04:50.843Z,6.90
2022-12-08T05:05:45.920Z,6.30
2022-12-08T05:06:41.134Z,6.00
2022-12-08T05:07:36.389Z,7.50
2022-12-08T05:08:31.856Z,7.10
2022-12-08T05:09:26.971Z,6.60
2022-12-08T05:10:22.275Z,7.40
2022-12-08T05:11:17.195Z,6.60
2022-12-08T05:12:12.318Z,6.20
2022-12-08T05:13:07.373Z,6.70
2022-12-08T05:14:02.484Z,7.30
2022-12-08T05:14:57.681Z,5.70
2022-12-08T05:15:52.887Z,6.60
2022-12-08T05:16:47.970Z,6.50
2022-12-08T05:17:42.979Z,6.70
2022-12-08T05:18:38.092Z,6.00
2022-12-08T05:19:33.201Z,5.70
2022-12-08T05:20:28.259Z,6.00
2022-12-08T05:21:23.487Z,5.90
2022-12-08T05:22:18.713Z,6.00
2022-12-08T05:23:13.808Z,6.50
2022-12-08T05:24:08.798Z,6.40
2022-12-08T05:25:07.136Z,6.30
2022-12-08T05:26:02.241Z,6.90
2022-12-08T05:26:57.212Z,6.80
2022-12-08T05:28:01.682Z,6.30
2022-12-08T05:28:48.399Z,6.60
2022-12-08T05:29:42.439Z,6.40
2022-12-08T05:30:37.535Z,6.70
2022-12-08T05:31:32.735Z,6.50
2022-12-08T05:32:27.616Z,6.30
2022-12-08T05:33:22.671Z,7.10
2022-12-08T05:34:17.829Z,6.50
2022-12-08T05:35:13.464Z,6.60
2022-12-08T05:36:08.823Z,6.50
2022-12-08T05:37:04.049Z,6.40
2022-12-08T05:37:59.269Z,7.50
2022-12-08T05:38:54.647Z,8.30
2022-12-08T05:39:49.905Z,7.70
2022-12-08T05:40:45.119Z,7.30
2022-12-08T05:41:40.460Z,7.50
2022-12-08T05:42:35.597Z,6.70
2022-12-08T05:43:30.816Z,7.20
2022-12-08T05:44:26.077Z,7.80
2022-12-08T05:45:21.331Z,7.90
2022-12-08T05:46:16.638Z,7.70
2022-12-08T05:47:11.787Z,7.60
2022-12-08T05:48:07.015Z,7.60
2022-12-08T05:49:02.425Z,7.30
2022-12-08T05:49:57.647Z,7.40
2022-12-08T05:50:52.881Z,7.80
2022-12-08T05:51:48.254Z,8.50
2022-12-08T05:52:43.395Z,7.40
2022-12-08T05:53:38.635Z,7.90
2022-12-08T05:54:33.876Z,8.00
2022-12-08T05:55:29.372Z,8.00
2022-12-08T05:56:24.785Z,7.90
2022-12-08T05:57:19.727Z,8.20
2022-12-08T05:58:14.987Z,8.60
2022-12-08T05:59:10.216Z,8.60
2022-12-08T06:00:05.652Z,8.30
2022-12-08T06:01:00.693Z,8.70
2022-12-08T06:01:56.002Z,10.00
2022-12-08T06:02:51.354Z,8.60
2022-12-08T06:03:46.694Z,10.60
2022-12-08T06:04:41.809Z,11.20
2022-12-08T06:05:37.105Z,12.80
2022-12-08T06:06:32.396Z,12.00
2022-12-08T06:07:27.604Z,12.10
2022-12-08T06:08:23.081Z,11.10
2022-12-08T06:09:20.148Z,12.00
2022-12-08T06:10:15.424Z,10.00
2022-12-08T06:11:10.772Z,10.60
2022-12-08T06:12:06.040Z,12.00
2022-12-08T06:13:01.254Z,14.00
2022-12-08T06:13:56.563Z,14.90
2022-12-08T06:14:51.605Z,15.40
2022-12-08T06:15:46.584Z,15.70
2022-12-08T06:16:41.612Z,14.90
2022-12-08T06:17:36.598Z,14.90
2022-12-08T06:18:32.942Z,12.20
2022-12-08T06:19:26.702Z,9.00
2022-12-08T06:20:21.649Z,9.10
2022-12-08T06:21:17.879Z,8.00
2022-12-08T06:22:12.956Z,9.10
2022-12-08T06:23:08.222Z,9.40
2022-12-08T06:24:03.225Z,8.20
2022-12-08T06:24:58.317Z,8.60
2022-12-08T06:25:53.318Z,8.00
2022-12-08T06:26:48.448Z,7.40
2022-12-08T06:27:43.425Z,8.10
2022-12-08T06:28:38.649Z,7.40
2022-12-08T06:29:33.607Z,7.80
2022-12-08T06:30:28.634Z,8.50
2022-12-08T06:31:23.668Z,7.80
2022-12-08T06:32:20.816Z,8.70
2022-12-08T06:33:14.718Z,7.10
2022-12-08T06:34:08.801Z,7.20
2022-12-08T06:35:04.080Z,7.90
2022-12-08T06:35:59.431Z,8.10
2022-12-08T06:36:55.202Z,7.30
2022-12-08T06:37:50.532Z,7.10
2022-12-08T06:38:46.408Z,7.20
2022-12-08T06:39:41.592Z,7.50
2022-12-08T06:40:36.870Z,7.00
2022-12-08T06:41:32.628Z,9.20
2022-12-08T06:42:27.917Z,8.30
2022-12-08T06:43:23.383Z,8.40
2022-12-08T06:44:19.555Z,9.00
2022-12-08T06:45:14.845Z,9.40
2022-12-08T06:46:10.667Z,8.50
2022-12-08T06:47:05.995Z,9.20
2022-12-08T06:48:01.434Z,7.60
2022-12-08T06:48:57.080Z,8.10
2022-12-08T06:49:52.369Z,7.70
2022-12-08T06:50:48.185Z,7.70
2022-12-08T06:51:43.532Z,8.00
2022-12-08T06:52:47.342Z,7.90
2022-12-08T06:53:35.712Z,7.20
2022-12-08T06:54:30.180Z,6.90
2022-12-08T06:55:57.349Z,7.50
2022-12-08T06:56:22.927Z,8.00
2022-12-08T06:57:17.231Z,8.10
2022-12-08T06:58:13.166Z,7.50
2022-12-08T06:59:08.481Z,7.40
2022-12-08T07:00:04.291Z,8.10
2022-12-08T07:00:59.696Z,6.40
2022-12-08T07:01:55.123Z,6.70
2022-12-08T07:02:50.769Z,6.40
2022-12-08T07:03:46.199Z,7.00
2022-12-08T07:04:41.637Z,7.10
2022-12-08T07:05:37.406Z,17.20
2022-12-08T07:06:32.703Z,30.50
2022-12-08T07:07:28.147Z,26.80
2022-12-08T07:08:24.722Z,21.70
2022-12-08T07:09:20.078Z,15.90
2022-12-08T07:10:15.729Z,13.70
2022-12-08T07:11:14.129Z,9.40
2022-12-08T07:12:07.969Z,7.40
2022-12-08T07:13:02.478Z,7.30
2022-12-08T07:13:58.288Z,6.50
2022-12-08T07:14:53.725Z,6.40
2022-12-08T07:15:49.138Z,6.90
2022-12-08T07:16:44.913Z,6.40
2022-12-08T07:17:40.297Z,7.10
2022-12-08T07:18:36.149Z,7.60
2022-12-08T07:19:31.429Z,6.40
2022-12-08T07:20:26.836Z,6.30
2022-12-08T07:21:22.551Z,5.90
2022-12-08T07:22:17.970Z,7.20
2022-12-08T07:23:13.476Z,7.20
2022-12-08T07:24:09.737Z,7.70
2022-12-08T07:25:05.127Z,7.70
2022-12-08T07:26:01.130Z,9.80
2022-12-08T07:26:56.541Z,8.80
2022-12-08T07:27:51.954Z,8.70
2022-12-08T07:28:47.687Z,8.80
2022-12-08T07:29:43.094Z,8.30
2022-12-08T07:30:39.024Z,7.70
2022-12-08T07:31:34.246Z,8.70
2022-12-08T07:32:29.661Z,7.90
2022-12-08T07:33:24.701Z,8.20
2022-12-08T07:34:19.720Z,7.30
2022-12-08T07:35:14.767Z,7.50
2022-12-08T07:36:09.826Z,7.50
2022-12-08T07:37:04.912Z,7.10
2022-12-08T07:37:59.967Z,7.70
2022-12-08T07:38:55.029Z,9.20
2022-12-08T07:39:50.048Z,8.60
2022-12-08T07:40:45.129Z,8.90
2022-12-08T07:41:42.728Z,8.60
2022-12-08T07:42:37.782Z,7.90
2022-12-08T07:43:32.854Z,8.40
2022-12-08T07:44:27.896Z,9.20
2022-12-08T07:45:26.918Z,7.90
2022-12-08T07:46:19.132Z,8.20
2022-12-08T07:47:13.150Z,8.80
2022-12-08T07:48:08.647Z,8.20
2022-12-08T07:49:04.115Z,7.50
2022-12-08T07:49:59.609Z,8.90
2022-12-08T07:50:55.113Z,9.20
2022-12-08T07:51:50.642Z,8.90
2022-12-08T07:52:50.017Z,8.10
2022-12-08T07:53:51.568Z,8.30
2022-12-08T07:54:42.054Z,7.80
2022-12-08T07:55:36.765Z,7.80
2022-12-08T07:56:32.274Z,7.90
2022-12-08T07:57:27.792Z,7.70
2022-12-08T07:58:23.879Z,7.60
2022-12-08T07:59:18.989Z,7.70
2022-12-08T08:00:14.117Z,8.20
2022-12-08T08:01:09.269Z,8.50
2022-12-08T08:02:22.818Z,9.90
2022-12-08T08:03:00.347Z,10.10
2022-12-08T08:03:54.414Z,7.80
2022-12-08T08:04:49.569Z,9.00
2022-12-08T08:05:45.339Z,8.50
2022-12-08T08:06:40.738Z,8.60
2022-12-08T08:07:36.281Z,9.20
2022-12-08T08:08:32.572Z,8.90
2022-12-08T08:09:27.952Z,8.20
2022-12-08T08:10:23.831Z,8.60
2022-12-08T08:11:21.657Z,7.10
2022-12-08T08:12:31.784Z,8.40
2022-12-08T08:13:10.852Z,7.10
2022-12-08T08:14:04.991Z,6.90
2022-12-08T08:15:04.640Z,6.50
2022-12-08T08:16:00.366Z,6.30
2022-12-08T08:16:55.519Z,6.40
2022-12-08T08:17:51.284Z,7.70
2022-12-08T08:18:46.768Z,6.20
2022-12-08T08:19:42.220Z,5.90
2022-12-08T08:20:38.807Z,6.50
2022-12-08T08:21:45.348Z,6.50
2022-12-08T08:22:30.879Z,6.50
2022-12-08T08:23:25.250Z,5.90
2022-12-08T08:24:20.682Z,6.40
2022-12-08T08:25:16.442Z,6.60
2022-12-08T08:26:11.889Z,6.80
2022-12-08T08:27:07.748Z,6.20
2022-12-08T08:28:03.081Z,6.50
2022-12-08T08:28:58.572Z,6.80
2022-12-08T08:29:54.417Z,8.30
2022-12-08T08:30:49.865Z,7.90
2022-12-08T08:31:45.186Z,7.00
2022-12-08T08:32:41.744Z,7.60
2022-12-08T08:33:37.177Z,7.30
2022-12-08T08:34:33.033Z,7.10
2022-12-08T08:35:28.603Z,6.50
2022-12-08T08:36:24.051Z,6.80
2022-12-08T08:37:19.810Z,7.00
2022-12-08T08:38:15.271Z,6.50
2022-12-08T08:39:11.140Z,7.00
2022-12-08T08:40:06.670Z,6.30
2022-12-08T08:41:02.368Z,6.10
2022-12-08T08:41:57.999Z,6.50
2022-12-08T08:42:53.188Z,7.00
2022-12-08T08:43:48.759Z,6.40
2022-12-08T08:44:44.933Z,6.10
2022-12-08T08:45:40.337Z,5.70
2022-12-08T08:46:36.303Z,6.60
2022-12-08T08:47:31.628Z,6.60
2022-12-08T08:48:27.150Z,6.00
2022-12-08T08:49:22.894Z,6.50
2022-12-08T08:50:18.378Z,6.00
2022-12-08T08:51:14.124Z,6.10
2022-12-08T08:52:09.488Z,5.90
2022-12-08T08:53:04.955Z,5.80
2022-12-08T08:54:00.683Z,5.80
2022-12-08T08:54:56.148Z,6.00
2022-12-08T08:55:51.607Z,6.10
2022-12-08T08:56:47.854Z,6.00
2022-12-08T08:57:43.234Z,5.60
2022-12-08T08:58:39.062Z,5.60
2022-12-08T08:59:34.483Z,5.50
2022-12-08T09:00:29.955Z,5.50
2022-12-08T09:01:25.724Z,6.00
2022-12-08T09:02:21.135Z,6.20
2022-12-08T09:03:16.762Z,6.40
2022-12-08T09:04:12.014Z,6.60
2022-12-08T09:05:08.005Z,7.10
2022-12-08T09:06:03.421Z,7.10
2022-12-08T09:06:58.734Z,7.50
2022-12-08T09:07:55.354Z,6.50
2022-12-08T09:08:50.710Z,6.20
2022-12-08T09:09:46.595Z,7.30
2022-12-08T09:10:42.043Z,6.60
2022-12-08T09:11:37.517Z,7.10
2022-12-08T09:12:33.247Z,8.60
2022-12-08T09:13:28.694Z,7.60
2022-12-08T09:14:24.562Z,7.10
2022-12-08T09:15:19.893Z,6.00
2022-12-08T09:16:15.426Z,6.30
2022-12-08T09:17:11.117Z,6.40
2022-12-08T09:18:06.513Z,6.50
2022-12-08T09:19:02.091Z,7.10
2022-12-08T09:19:57.561Z,6.40
2022-12-08T09:20:53.018Z,6.80
2022-12-08T09:21:49.650Z,6.40
2022-12-08T09:22:45.108Z,5.90
2022-12-08T09:23:40.597Z,5.50
2022-12-08T09:24:37.126Z,6.80
2022-12-08T09:25:32.554Z,6.00
2022-12-08T09:26:28.034Z,6.90
2022-12-08T09:27:23.725Z,5.90
2022-12-08T09:28:19.238Z,7.00
2022-12-08T09:29:14.687Z,6.20
2022-12-08T09:30:10.123Z,6.50
2022-12-08T09:31:05.291Z,6.80
2022-12-08T09:32:00.220Z,6.40
2022-12-08T09:32:55.235Z,6.70
2022-12-08T09:33:50.343Z,6.70
2022-12-08T09:34:49.019Z,6.30
2022-12-08T09:35:41.416Z,6.50
2022-12-08T09:36:35.486Z,5.80
2022-12-08T09:37:30.529Z,6.40
2022-12-08T09:38:25.566Z,7.40
2022-12-08T09:39:20.616Z,6.90
2022-12-08T09:40:15.660Z,9.60
2022-12-08T09:41:10.771Z,9.20
2022-12-08T09:42:05.789Z,9.00
2022-12-08T09:43:00.850Z,8.80
2022-12-08T09:43:55.876Z,8.50
2022-12-08T09:44:50.958Z,11.10
2022-12-08T09:45:46.029Z,8.60
2022-12-08T09:46:41.134Z,7.90
2022-12-08T09:47:36.559Z,7.00
2022-12-08T09:48:31.243Z,7.50
2022-12-08T09:49:26.294Z,7.50
2022-12-08T09:50:21.462Z,7.20
2022-12-08T09:51:16.403Z,7.60
2022-12-08T09:52:11.411Z,7.10
2022-12-08T09:53:07.473Z,8.30
2022-12-08T09:54:02.526Z,9.10
2022-12-08T09:54:57.571Z,10.50
2022-12-08T09:55:52.644Z,8.90
2022-12-08T09:56:47.679Z,8.70
2022-12-08T09:57:42.714Z,7.60
2022-12-08T09:58:37.799Z,8.30
2022-12-08T09:59:32.862Z,7.20
2022-12-08T10:00:28.052Z,7.10
2022-12-08T10:01:23.189Z,7.70
2022-12-08T10:02:18.167Z,6.50
2022-12-08T10:03:16.924Z,6.80
2022-12-08T10:04:09.549Z,7.10
2022-12-08T10:05:05.206Z,6.90
2022-12-08T10:06:00.440Z,7.70
2022-12-08T10:06:55.872Z,7.80
2022-12-08T10:07:51.024Z,8.20
2022-12-08T10:08:45.932Z,10.60
2022-12-08T10:09:40.999Z,8.20
2022-12-08T10:10:36.051Z,7.40
2022-12-08T10:11:31.095Z,7.10
2022-12-08T10:12:26.262Z,7.60
2022-12-08T10:13:21.312Z,7.80
2022-12-08T10:14:16.326Z,8.20
2022-12-08T10:15:11.403Z,8.00
2022-12-08T10:16:06.468Z,7.30
2022-12-08T10:17:01.606Z,8.30
2022-12-08T10:17:56.822Z,7.40
2022-12-08T10:18:52.284Z,7.80
2022-12-08T10:19:47.871Z,7.40
2022-12-08T10:20:43.329Z,7.50
2022-12-08T10:21:38.777Z,7.70
2022-12-08T10:22:35.302Z,7.30
2022-12-08T10:23:29.698Z,8.40
2022-12-08T10:24:25.128Z,7.50
2022-12-08T10:25:20.582Z,7.50
2022-12-08T10:26:16.033Z,8.10
2022-12-08T10:27:11.585Z,8.70
2022-12-08T10:28:07.080Z,7.60
2022-12-08T10:29:02.554Z,7.80
2022-12-08T10:29:58.037Z,8.20
2022-12-08T10:30:53.593Z,7.50
2022-12-08T10:31:52.455Z,8.00
2022-12-08T10:32:47.750Z,7.50
2022-12-08T10:33:43.195Z,6.70
2022-12-08T10:34:38.792Z,7.20
2022-12-08T10:35:34.224Z,7.00
2022-12-08T10:36:29.695Z,8.60
2022-12-08T10:37:25.315Z,7.10
2022-12-08T10:38:20.751Z,7.90
2022-12-08T10:39:16.203Z,7.30
2022-12-08T10:40:11.934Z,7.00
2022-12-08T10:41:07.262Z,7.70
2022-12-08T10:42:02.688Z,7.60
2022-12-08T10:42:58.308Z,7.70
2022-12-08T10:43:53.751Z,7.50
2022-12-08T10:44:49.190Z,7.40
2022-12-08T10:45:44.246Z,7.70
2022-12-08T10:46:39.316Z,7.40
2022-12-08T10:47:34.312Z,7.70
2022-12-08T10:48:29.533Z,7.50
2022-12-08T10:49:24.538Z,7.50
2022-12-08T10:50:19.660Z,7.80
2022-12-08T10:51:14.736Z,7.00
2022-12-08T10:52:09.786Z,7.20
2022-12-08T10:53:04.846Z,8.60
2022-12-08T10:53:59.894Z,7.70
2022-12-08T10:54:56.387Z,7.20
2022-12-08T10:55:51.465Z,6.80
2022-12-08T10:56:46.527Z,7.40
2022-12-08T10:57:41.607Z,7.60
2022-12-08T10:58:37.024Z,7.40
2022-12-08T10:59:32.457Z,7.90
2022-12-08T11:00:28.349Z,7.40
2022-12-08T11:01:23.572Z,7.50
2022-12-08T11:02:19.111Z,7.50
2022-12-08T11:03:14.519Z,7.20
2022-12-08T11:04:10.012Z,7.20
2022-12-08T11:05:05.462Z,7.60
2022-12-08T11:06:07.099Z,7.70
2022-12-08T11:06:57.569Z,7.30
2022-12-08T11:07:51.592Z,7.80
2022-12-08T11:08:46.690Z,7.90
2022-12-08T11:09:41.748Z,7.60
2022-12-08T11:10:38.587Z,7.10
2022-12-08T11:11:33.622Z,6.70
2022-12-08T11:12:28.696Z,7.00
2022-12-08T11:13:23.739Z,7.50
2022-12-08T11:14:18.762Z,6.60
2022-12-08T11:15:13.930Z,7.30
2022-12-08T11:16:09.091Z,7.80
2022-12-08T11:17:04.047Z,9.80
2022-12-08T11:17:59.140Z,10.00
2022-12-08T11:18:54.156Z,11.00
2022-12-08T11:19:50.198Z,10.40
2022-12-08T11:20:44.287Z,10.20
2022-12-08T11:21:39.310Z,11.10
2022-12-08T11:22:34.331Z,11.30
2022-12-08T11:23:29.441Z,11.20
2022-12-08T11:24:25.949Z,11.20
2022-12-08T11:25:21.551Z,11.70
2022-12-08T11:26:17.009Z,11.70
2022-12-08T11:27:12.458Z,11.10
2022-12-08T11:28:08.019Z,11.40
2022-12-08T11:29:03.514Z,13.20
2022-12-08T11:29:59.034Z,11.40
2022-12-08T11:30:54.493Z,11.70
2022-12-08T11:31:50.067Z,11.10
2022-12-08T11:32:45.489Z,11.80
2022-12-08T11:33:40.927Z,11.30
2022-12-08T11:34:36.410Z,11.20
2022-12-08T11:35:31.845Z,12.40
2022-12-08T11:36:27.443Z,11.40
2022-12-08T11:37:22.912Z,11.10
2022-12-08T11:38:22.122Z,12.00
2022-12-08T11:39:12.913Z,11.20
2022-12-08T11:40:08.332Z,12.70
2022-12-08T11:41:02.959Z,12.80
2022-12-08T11:41:57.993Z,11.40
2022-12-08T11:42:53.181Z,11.40
2022-12-08T11:43:48.243Z,10.90
2022-12-08T11:44:43.331Z,10.90
2022-12-08T11:45:38.489Z,11.60
2022-12-08T11:46:33.517Z,10.30
2022-12-08T11:47:28.549Z,11.10
2022-12-08T11:48:23.631Z,10.40
2022-12-08T11:49:18.725Z,11.30
2022-12-08T11:50:18.138Z,15.10
2022-12-08T11:51:09.827Z,12.60
2022-12-08T11:52:03.803Z,14.10
2022-12-08T11:52:58.847Z,12.20
2022-12-08T11:53:54.025Z,11.10
2022-12-08T11:54:50.846Z,10.90
2022-12-08T11:55:49.640Z,10.00
2022-12-08T11:56:41.797Z,9.80
2022-12-08T11:57:37.409Z,10.60
2022-12-08T11:58:32.836Z,10.90
2022-12-08T11:59:28.265Z,11.00
2022-12-08T12:00:23.897Z,11.10
2022-12-08T12:01:19.348Z,10.90
2022-12-08T12:02:14.866Z,10.90
2022-12-08T12:03:10.428Z,11.10
2022-12-08T12:04:05.902Z,11.10
2022-12-08T12:05:01.371Z,11.00
2022-12-08T12:06:13.201Z,11.40
2022-12-08T12:06:55.410Z,11.10
2022-12-08T12:07:47.891Z,11.50
2022-12-08T12:08:43.429Z,10.70
2022-12-08T12:09:38.928Z,11.20
2022-12-08T12:10:37.747Z,11.50
2022-12-08T12:11:33.122Z,11.30
2022-12-08T12:12:28.399Z,10.70
2022-12-08T12:13:23.893Z,10.80
2022-12-08T12:14:19.407Z,10.90